Main page
METAR-TAF:

METAR-TAF

Airports :

Fort Madison Municipal Airport

Fort Madison, Iowa, United States

latitude: 40-40N, longitude: 091-20W, elevation: 725 ft

Current weather observation

The report was made 13 minutes ago, at 10:35 UTC
Wind 16 mph from the East with gusts up to 21 mph
Temperature 63°F
Humidity 59%
Pressure 29.78 in. Hg
Visibility: 10 miles
Clear sky

METAR: KFSW 161035Z AUTO 10014G18KT 10SM CLR 17/09 A2978 RMK AO2

Time: 05:48 (10:48 UTC)


TAF: missing

Weather observations and forecasts of more than 4000 airports (METAR and TAF reports).

The available stations are represented by yellow and red dots on the map.

Hover mouse over dot to see the name of the station.

Then click to see weather observations and forecasts.

To change the map : click on the green buttons with a black cross to zoom in, on the green button with a dash to zoom out, or on the green arrows for adjacent maps.


METAR-TAF: